sensor_id;sensor_type;location;lat;lon;timestamp;P1;durP1;ratioP1;P2;durP2;ratioP2
49384;SDS011;36795;45.028;38.968;2023-11-25T00:00:53;26.08;;;9.60;;
49384;SDS011;36795;45.028;38.968;2023-11-25T00:03:40;25.90;;;10.00;;
49384;SDS011;36795;45.028;38.968;2023-11-25T00:06:25;27.67;;;9.80;;
49384;SDS011;36795;45.028;38.968;2023-11-25T00:09:13;26.62;;;9.80;;
49384;SDS011;36795;45.028;38.968;2023-11-25T00:12:00;23.87;;;9.05;;
49384;SDS011;36795;45.028;38.968;2023-11-25T00:14:47;26.23;;;10.25;;
49384;SDS011;36795;45.028;38.968;2023-11-25T00:17:32;26.50;;;10.55;;
49384;SDS011;36795;45.028;38.968;2023-11-25T00:20:20;26.62;;;9.65;;
49384;SDS011;36795;45.028;38.968;2023-11-25T00:23:06;28.17;;;10.27;;
49384;SDS011;36795;45.028;38.968;2023-11-25T00:25:52;25.65;;;9.68;;
49384;SDS011;36795;45.028;38.968;2023-11-25T00:28:39;28.55;;;10.52;;
49384;SDS011;36795;45.028;38.968;2023-11-25T00:31:25;24.08;;;9.98;;
49384;SDS011;36795;45.028;38.968;2023-11-25T00:34:11;28.38;;;10.52;;
49384;SDS011;36795;45.028;38.968;2023-11-25T00:36:58;27.17;;;10.23;;
49384;SDS011;36795;45.028;38.968;2023-11-25T00:39:44;26.98;;;10.00;;
49384;SDS011;36795;45.028;38.968;2023-11-25T00:42:31;28.05;;;11.12;;
49384;SDS011;36795;45.028;38.968;2023-11-25T00:45:16;28.25;;;11.18;;
49384;SDS011;36795;45.028;38.968;2023-11-25T00:48:03;28.17;;;9.50;;
49384;SDS011;36795;45.028;38.968;2023-11-25T00:50:51;28.23;;;10.77;;
49384;SDS011;36795;45.028;38.968;2023-11-25T00:53:37;26.67;;;10.50;;
49384;SDS011;36795;45.028;38.968;2023-11-25T00:56:23;26.67;;;10.88;;
49384;SDS011;36795;45.028;38.968;2023-11-25T00:59:09;25.92;;;9.38;;
49384;SDS011;36795;45.028;38.968;2023-11-25T01:01:56;26.80;;;10.82;;
49384;SDS011;36795;45.028;38.968;2023-11-25T01:04:42;26.42;;;10.07;;
49384;SDS011;36795;45.028;38.968;2023-11-25T01:07:28;30.10;;;10.55;;
49384;SDS011;36795;45.028;38.968;2023-11-25T01:10:14;28.83;;;10.55;;
49384;SDS011;36795;45.028;38.968;2023-11-25T01:13:00;30.02;;;11.25;;
49384;SDS011;36795;45.028;38.968;2023-11-25T01:15:47;29.10;;;10.63;;
49384;SDS011;36795;45.028;38.968;2023-11-25T01:18:32;31.48;;;10.57;;
49384;SDS011;36795;45.028;38.968;2023-11-25T01:21:19;28.17;;;10.18;;
49384;SDS011;36795;45.028;38.968;2023-11-25T01:24:04;29.15;;;10.95;;
49384;SDS011;36795;45.028;38.968;2023-11-25T01:26:52;28.45;;;10.45;;
49384;SDS011;36795;45.028;38.968;2023-11-25T01:29:38;26.10;;;9.65;;
49384;SDS011;36795;45.028;38.968;2023-11-25T01:32:24;30.05;;;10.75;;
49384;SDS011;36795;45.028;38.968;2023-11-25T01:35:10;26.35;;;10.20;;
49384;SDS011;36795;45.028;38.968;2023-11-25T01:37:57;26.08;;;9.40;;
49384;SDS011;36795;45.028;38.968;2023-11-25T01:40:43;29.25;;;10.98;;
49384;SDS011;36795;45.028;38.968;2023-11-25T01:43:29;31.40;;;11.07;;
49384;SDS011;36795;45.028;38.968;2023-11-25T01:46:34;28.45;;;11.52;;
49384;SDS011;36795;45.028;38.968;2023-11-25T01:49:24;29.52;;;10.80;;
49384;SDS011;36795;45.028;38.968;2023-11-25T01:52:10;29.45;;;11.73;;
49384;SDS011;36795;45.028;38.968;2023-11-25T01:54:58;30.75;;;12.45;;
49384;SDS011;36795;45.028;38.968;2023-11-25T01:57:48;32.72;;;13.55;;
49384;SDS011;36795;45.028;38.968;2023-11-25T02:00:35;30.15;;;12.00;;
49384;SDS011;36795;45.028;38.968;2023-11-25T02:03:24;32.70;;;13.02;;
49384;SDS011;36795;45.028;38.968;2023-11-25T02:06:10;33.45;;;12.05;;
49384;SDS011;36795;45.028;38.968;2023-11-25T02:08:56;30.25;;;12.50;;
49384;SDS011;36795;45.028;38.968;2023-11-25T02:11:52;31.02;;;12.63;;
49384;SDS011;36795;45.028;38.968;2023-11-25T02:14:43;31.15;;;13.43;;
49384;SDS011;36795;45.028;38.968;2023-11-25T02:17:28;32.95;;;13.35;;
49384;SDS011;36795;45.028;38.968;2023-11-25T02:20:16;33.20;;;13.23;;
49384;SDS011;36795;45.028;38.968;2023-11-25T02:23:22;32.60;;;14.02;;
49384;SDS011;36795;45.028;38.968;2023-11-25T02:26:08;33.25;;;14.87;;
49384;SDS011;36795;45.028;38.968;2023-11-25T02:28:54;35.22;;;15.35;;
49384;SDS011;36795;45.028;38.968;2023-11-25T02:31:40;38.47;;;16.87;;
49384;SDS011;36795;45.028;38.968;2023-11-25T02:34:27;39.17;;;17.45;;
49384;SDS011;36795;45.028;38.968;2023-11-25T02:37:13;34.38;;;17.15;;
49384;SDS011;36795;45.028;38.968;2023-11-25T02:40:01;36.00;;;16.80;;
49384;SDS011;36795;45.028;38.968;2023-11-25T02:42:49;34.65;;;16.15;;
49384;SDS011;36795;45.028;38.968;2023-11-25T02:45:35;34.95;;;16.98;;
49384;SDS011;36795;45.028;38.968;2023-11-25T02:48:22;40.08;;;17.98;;
49384;SDS011;36795;45.028;38.968;2023-11-25T02:51:10;38.22;;;17.35;;
49384;SDS011;36795;45.028;38.968;2023-11-25T02:53:56;39.83;;;17.45;;
49384;SDS011;36795;45.028;38.968;2023-11-25T02:56:43;35.25;;;16.83;;
49384;SDS011;36795;45.028;38.968;2023-11-25T02:59:28;34.20;;;16.75;;
49384;SDS011;36795;45.028;38.968;2023-11-25T03:02:14;32.90;;;15.52;;
49384;SDS011;36795;45.028;38.968;2023-11-25T03:05:01;31.50;;;14.93;;
49384;SDS011;36795;45.028;38.968;2023-11-25T03:07:47;33.65;;;15.02;;
49384;SDS011;36795;45.028;38.968;2023-11-25T03:10:35;37.40;;;15.60;;
49384;SDS011;36795;45.028;38.968;2023-11-25T03:13:22;35.35;;;15.85;;
49384;SDS011;36795;45.028;38.968;2023-11-25T03:16:10;39.65;;;16.65;;
49384;SDS011;36795;45.028;38.968;2023-11-25T03:18:57;36.10;;;15.60;;
49384;SDS011;36795;45.028;38.968;2023-11-25T03:21:42;38.47;;;17.98;;
49384;SDS011;36795;45.028;38.968;2023-11-25T03:24:29;37.47;;;19.85;;
49384;SDS011;36795;45.028;38.968;2023-11-25T03:27:15;41.40;;;22.98;;
49384;SDS011;36795;45.028;38.968;2023-11-25T03:30:02;44.05;;;25.50;;
49384;SDS011;36795;45.028;38.968;2023-11-25T03:32:52;40.42;;;21.92;;
49384;SDS011;36795;45.028;38.968;2023-11-25T03:35:38;43.70;;;22.30;;
49384;SDS011;36795;45.028;38.968;2023-11-25T03:38:24;39.72;;;21.02;;
49384;SDS011;36795;45.028;38.968;2023-11-25T03:41:10;37.80;;;19.37;;
49384;SDS011;36795;45.028;38.968;2023-11-25T03:43:57;36.28;;;18.08;;
49384;SDS011;36795;45.028;38.968;2023-11-25T03:46:45;33.08;;;15.85;;
49384;SDS011;36795;45.028;38.968;2023-11-25T03:49:31;36.03;;;16.30;;
49384;SDS011;36795;45.028;38.968;2023-11-25T03:52:18;34.03;;;16.42;;
49384;SDS011;36795;45.028;38.968;2023-11-25T03:55:04;33.58;;;15.93;;
49384;SDS011;36795;45.028;38.968;2023-11-25T03:57:50;33.10;;;15.43;;
49384;SDS011;36795;45.028;38.968;2023-11-25T04:00:37;33.72;;;15.45;;
49384;SDS011;36795;45.028;38.968;2023-11-25T04:03:23;35.33;;;16.85;;
49384;SDS011;36795;45.028;38.968;2023-11-25T04:06:11;36.20;;;17.12;;
49384;SDS011;36795;45.028;38.968;2023-11-25T04:08:59;32.92;;;14.93;;
49384;SDS011;36795;45.028;38.968;2023-11-25T04:11:44;35.88;;;17.33;;
49384;SDS011;36795;45.028;38.968;2023-11-25T04:14:30;40.33;;;19.17;;
49384;SDS011;36795;45.028;38.968;2023-11-25T04:17:16;36.03;;;18.10;;
49384;SDS011;36795;45.028;38.968;2023-11-25T04:20:03;37.80;;;17.30;;
49384;SDS011;36795;45.028;38.968;2023-11-25T04:22:59;34.92;;;16.77;;
49384;SDS011;36795;45.028;38.968;2023-11-25T04:25:50;32.90;;;15.63;;
49384;SDS011;36795;45.028;38.968;2023-11-25T04:28:36;36.58;;;16.33;;
49384;SDS011;36795;45.028;38.968;2023-11-25T04:31:24;33.13;;;15.63;;
49384;SDS011;36795;45.028;38.968;2023-11-25T04:34:11;32.85;;;14.25;;
49384;SDS011;36795;45.028;38.968;2023-11-25T04:36:58;25.88;;;10.43;;
49384;SDS011;36795;45.028;38.968;2023-11-25T04:39:44;21.60;;;6.82;;
49384;SDS011;36795;45.028;38.968;2023-11-25T04:42:30;23.02;;;7.25;;
49384;SDS011;36795;45.028;38.968;2023-11-25T04:45:15;19.27;;;5.72;;
49384;SDS011;36795;45.028;38.968;2023-11-25T04:48:02;19.17;;;5.70;;
49384;SDS011;36795;45.028;38.968;2023-11-25T04:50:48;20.05;;;5.97;;
49384;SDS011;36795;45.028;38.968;2023-11-25T04:53:34;21.27;;;6.25;;
49384;SDS011;36795;45.028;38.968;2023-11-25T04:56:21;20.90;;;6.72;;
49384;SDS011;36795;45.028;38.968;2023-11-25T04:59:07;26.85;;;9.77;;
49384;SDS011;36795;45.028;38.968;2023-11-25T05:01:53;19.08;;;6.37;;
49384;SDS011;36795;45.028;38.968;2023-11-25T05:04:39;21.55;;;6.65;;
49384;SDS011;36795;45.028;38.968;2023-11-25T05:07:25;16.48;;;5.10;;
49384;SDS011;36795;45.028;38.968;2023-11-25T05:10:11;19.73;;;5.00;;
49384;SDS011;36795;45.028;38.968;2023-11-25T05:12:57;18.08;;;5.32;;
49384;SDS011;36795;45.028;38.968;2023-11-25T05:15:43;15.68;;;4.25;;
49384;SDS011;36795;45.028;38.968;2023-11-25T05:18:29;18.30;;;4.55;;
49384;SDS011;36795;45.028;38.968;2023-11-25T05:21:15;15.00;;;4.25;;
49384;SDS011;36795;45.028;38.968;2023-11-25T05:24:01;14.98;;;4.15;;
49384;SDS011;36795;45.028;38.968;2023-11-25T05:26:48;18.08;;;4.57;;
49384;SDS011;36795;45.028;38.968;2023-11-25T05:29:34;22.40;;;6.03;;
49384;SDS011;36795;45.028;38.968;2023-11-25T05:32:20;19.30;;;5.53;;
49384;SDS011;36795;45.028;38.968;2023-11-25T05:35:07;23.38;;;5.62;;
49384;SDS011;36795;45.028;38.968;2023-11-25T05:37:54;26.45;;;5.93;;
49384;SDS011;36795;45.028;38.968;2023-11-25T05:40:39;19.48;;;4.93;;
49384;SDS011;36795;45.028;38.968;2023-11-25T05:43:26;21.92;;;5.22;;
49384;SDS011;36795;45.028;38.968;2023-11-25T05:46:19;26.83;;;9.73;;
49384;SDS011;36795;45.028;38.968;2023-11-25T05:49:07;20.58;;;4.97;;
49384;SDS011;36795;45.028;38.968;2023-11-25T05:51:53;21.25;;;4.93;;
49384;SDS011;36795;45.028;38.968;2023-11-25T05:54:39;20.05;;;5.62;;
49384;SDS011;36795;45.028;38.968;2023-11-25T05:57:27;22.10;;;5.57;;
49384;SDS011;36795;45.028;38.968;2023-11-25T06:00:13;17.83;;;4.93;;
49384;SDS011;36795;45.028;38.968;2023-11-25T06:03:00;17.12;;;4.95;;
49384;SDS011;36795;45.028;38.968;2023-11-25T06:05:45;18.62;;;4.62;;
49384;SDS011;36795;45.028;38.968;2023-11-25T06:08:32;16.58;;;4.35;;
49384;SDS011;36795;45.028;38.968;2023-11-25T06:11:27;16.25;;;4.10;;
49384;SDS011;36795;45.028;38.968;2023-11-25T06:14:13;17.02;;;4.45;;
49384;SDS011;36795;45.028;38.968;2023-11-25T06:17:00;15.05;;;4.15;;
49384;SDS011;36795;45.028;38.968;2023-11-25T06:19:48;14.50;;;3.70;;
49384;SDS011;36795;45.028;38.968;2023-11-25T06:22:35;15.40;;;3.97;;
49384;SDS011;36795;45.028;38.968;2023-11-25T06:25:21;11.52;;;3.60;;
49384;SDS011;36795;45.028;38.968;2023-11-25T06:28:13;13.00;;;3.80;;
49384;SDS011;36795;45.028;38.968;2023-11-25T06:31:00;18.30;;;4.50;;
49384;SDS011;36795;45.028;38.968;2023-11-25T06:33:49;12.40;;;3.53;;
49384;SDS011;36795;45.028;38.968;2023-11-25T06:36:37;15.40;;;3.80;;
49384;SDS011;36795;45.028;38.968;2023-11-25T06:39:23;13.95;;;3.70;;
49384;SDS011;36795;45.028;38.968;2023-11-25T06:42:12;12.82;;;3.30;;
49384;SDS011;36795;45.028;38.968;2023-11-25T06:44:57;15.05;;;4.05;;
49384;SDS011;36795;45.028;38.968;2023-11-25T06:47:43;12.00;;;3.20;;
49384;SDS011;36795;45.028;38.968;2023-11-25T06:50:29;17.05;;;7.05;;
49384;SDS011;36795;45.028;38.968;2023-11-25T06:53:15;16.75;;;4.10;;
49384;SDS011;36795;45.028;38.968;2023-11-25T06:56:01;13.30;;;3.70;;
49384;SDS011;36795;45.028;38.968;2023-11-25T06:58:47;17.73;;;3.62;;
49384;SDS011;36795;45.028;38.968;2023-11-25T07:01:33;14.75;;;4.12;;
49384;SDS011;36795;45.028;38.968;2023-11-25T07:04:20;15.45;;;4.18;;
49384;SDS011;36795;45.028;38.968;2023-11-25T07:07:06;15.25;;;4.35;;
49384;SDS011;36795;45.028;38.968;2023-11-25T07:09:52;19.08;;;4.95;;
49384;SDS011;36795;45.028;38.968;2023-11-25T07:12:38;19.12;;;6.10;;
49384;SDS011;36795;45.028;38.968;2023-11-25T07:15:25;19.95;;;6.03;;
49384;SDS011;36795;45.028;38.968;2023-11-25T07:18:11;16.87;;;5.25;;
49384;SDS011;36795;45.028;38.968;2023-11-25T07:20:58;11.15;;;3.55;;
49384;SDS011;36795;45.028;38.968;2023-11-25T07:23:47;14.73;;;3.87;;
49384;SDS011;36795;45.028;38.968;2023-11-25T07:26:33;13.80;;;4.25;;
49384;SDS011;36795;45.028;38.968;2023-11-25T07:29:26;14.43;;;4.37;;
49384;SDS011;36795;45.028;38.968;2023-11-25T07:32:16;13.73;;;4.10;;
49384;SDS011;36795;45.028;38.968;2023-11-25T07:35:03;18.05;;;5.00;;
49384;SDS011;36795;45.028;38.968;2023-11-25T07:37:53;16.55;;;4.30;;
49384;SDS011;36795;45.028;38.968;2023-11-25T07:40:39;14.23;;;4.07;;
49384;SDS011;36795;45.028;38.968;2023-11-25T07:43:25;21.42;;;4.70;;
49384;SDS011;36795;45.028;38.968;2023-11-25T07:46:11;17.58;;;4.18;;
49384;SDS011;36795;45.028;38.968;2023-11-25T07:48:57;13.68;;;4.25;;
49384;SDS011;36795;45.028;38.968;2023-11-25T07:51:44;17.60;;;4.62;;
49384;SDS011;36795;45.028;38.968;2023-11-25T07:54:33;20.95;;;6.80;;
49384;SDS011;36795;45.028;38.968;2023-11-25T07:57:19;16.58;;;4.43;;
49384;SDS011;36795;45.028;38.968;2023-11-25T08:00:06;15.35;;;4.43;;
49384;SDS011;36795;45.028;38.968;2023-11-25T08:02:56;15.55;;;4.70;;
49384;SDS011;36795;45.028;38.968;2023-11-25T08:05:43;16.77;;;4.78;;
49384;SDS011;36795;45.028;38.968;2023-11-25T08:08:29;16.62;;;5.03;;
49384;SDS011;36795;45.028;38.968;2023-11-25T08:11:22;18.87;;;5.75;;
49384;SDS011;36795;45.028;38.968;2023-11-25T08:14:12;19.25;;;6.40;;
49384;SDS011;36795;45.028;38.968;2023-11-25T08:16:59;24.60;;;6.35;;
49384;SDS011;36795;45.028;38.968;2023-11-25T08:19:44;19.10;;;6.05;;
49384;SDS011;36795;45.028;38.968;2023-11-25T08:22:31;19.33;;;6.75;;
49384;SDS011;36795;45.028;38.968;2023-11-25T08:25:17;19.98;;;6.18;;
49384;SDS011;36795;45.028;38.968;2023-11-25T08:28:04;21.05;;;6.45;;
49384;SDS011;36795;45.028;38.968;2023-11-25T08:30:50;21.62;;;9.65;;
49384;SDS011;36795;45.028;38.968;2023-11-25T08:33:38;20.20;;;8.50;;
49384;SDS011;36795;45.028;38.968;2023-11-25T08:36:26;18.80;;;5.10;;
49384;SDS011;36795;45.028;38.968;2023-11-25T08:39:12;16.62;;;5.22;;
49384;SDS011;36795;45.028;38.968;2023-11-25T08:41:58;19.73;;;4.93;;
49384;SDS011;36795;45.028;38.968;2023-11-25T08:44:45;17.98;;;4.87;;
49384;SDS011;36795;45.028;38.968;2023-11-25T08:47:33;18.58;;;5.00;;
49384;SDS011;36795;45.028;38.968;2023-11-25T08:50:20;17.30;;;4.87;;
49384;SDS011;36795;45.028;38.968;2023-11-25T08:53:07;20.20;;;6.22;;
49384;SDS011;36795;45.028;38.968;2023-11-25T08:55:53;22.35;;;6.55;;
49384;SDS011;36795;45.028;38.968;2023-11-25T08:58:39;22.15;;;7.43;;
49384;SDS011;36795;45.028;38.968;2023-11-25T09:01:27;19.87;;;6.00;;
49384;SDS011;36795;45.028;38.968;2023-11-25T09:04:16;20.30;;;5.25;;
49384;SDS011;36795;45.028;38.968;2023-11-25T09:07:05;25.50;;;7.20;;
49384;SDS011;36795;45.028;38.968;2023-11-25T09:09:52;22.35;;;5.55;;
49384;SDS011;36795;45.028;38.968;2023-11-25T09:12:39;16.90;;;5.00;;
49384;SDS011;36795;45.028;38.968;2023-11-25T09:15:25;16.83;;;5.60;;
49384;SDS011;36795;45.028;38.968;2023-11-25T09:18:11;16.87;;;4.35;;
49384;SDS011;36795;45.028;38.968;2023-11-25T09:20:57;16.80;;;5.68;;
49384;SDS011;36795;45.028;38.968;2023-11-25T09:23:43;20.12;;;5.68;;
49384;SDS011;36795;45.028;38.968;2023-11-25T09:26:29;18.37;;;5.57;;
49384;SDS011;36795;45.028;38.968;2023-11-25T09:29:15;20.25;;;5.72;;
49384;SDS011;36795;45.028;38.968;2023-11-25T09:32:01;13.32;;;3.87;;
49384;SDS011;36795;45.028;38.968;2023-11-25T09:34:47;19.15;;;5.32;;
49384;SDS011;36795;45.028;38.968;2023-11-25T09:37:34;18.98;;;5.22;;
49384;SDS011;36795;45.028;38.968;2023-11-25T09:40:21;20.02;;;5.80;;
49384;SDS011;36795;45.028;38.968;2023-11-25T09:43:09;17.05;;;5.55;;
49384;SDS011;36795;45.028;38.968;2023-11-25T09:45:56;21.67;;;6.47;;
49384;SDS011;36795;45.028;38.968;2023-11-25T09:48:42;18.73;;;5.95;;
49384;SDS011;36795;45.028;38.968;2023-11-25T09:51:28;22.23;;;7.40;;
49384;SDS011;36795;45.028;38.968;2023-11-25T09:54:20;21.27;;;6.15;;
49384;SDS011;36795;45.028;38.968;2023-11-25T09:57:07;23.73;;;7.05;;
49384;SDS011;36795;45.028;38.968;2023-11-25T09:59:54;18.90;;;6.55;;
49384;SDS011;36795;45.028;38.968;2023-11-25T10:02:42;19.75;;;6.28;;
49384;SDS011;36795;45.028;38.968;2023-11-25T10:05:29;16.45;;;5.15;;
49384;SDS011;36795;45.028;38.968;2023-11-25T10:08:15;20.15;;;6.55;;
49384;SDS011;36795;45.028;38.968;2023-11-25T10:11:02;19.83;;;6.70;;
49384;SDS011;36795;45.028;38.968;2023-11-25T10:13:53;18.60;;;6.07;;
49384;SDS011;36795;45.028;38.968;2023-11-25T10:16:40;19.25;;;6.40;;
49384;SDS011;36795;45.028;38.968;2023-11-25T10:19:31;19.65;;;5.55;;
49384;SDS011;36795;45.028;38.968;2023-11-25T10:22:17;19.20;;;5.70;;
49384;SDS011;36795;45.028;38.968;2023-11-25T10:25:04;18.73;;;6.05;;
49384;SDS011;36795;45.028;38.968;2023-11-25T10:27:51;16.40;;;5.22;;
49384;SDS011;36795;45.028;38.968;2023-11-25T10:30:39;19.00;;;5.80;;
49384;SDS011;36795;45.028;38.968;2023-11-25T10:33:26;18.73;;;5.93;;
49384;SDS011;36795;45.028;38.968;2023-11-25T10:36:12;18.27;;;5.45;;
49384;SDS011;36795;45.028;38.968;2023-11-25T10:38:59;20.08;;;5.50;;
49384;SDS011;36795;45.028;38.968;2023-11-25T10:41:49;18.30;;;5.60;;
49384;SDS011;36795;45.028;38.968;2023-11-25T10:44:36;17.37;;;5.35;;
49384;SDS011;36795;45.028;38.968;2023-11-25T10:47:33;21.73;;;6.95;;
49384;SDS011;36795;45.028;38.968;2023-11-25T10:50:19;20.73;;;5.45;;
49384;SDS011;36795;45.028;38.968;2023-11-25T10:53:05;18.48;;;5.90;;
49384;SDS011;36795;45.028;38.968;2023-11-25T10:55:55;18.27;;;5.90;;
49384;SDS011;36795;45.028;38.968;2023-11-25T10:58:43;18.27;;;6.05;;
49384;SDS011;36795;45.028;38.968;2023-11-25T11:01:32;18.37;;;5.80;;
49384;SDS011;36795;45.028;38.968;2023-11-25T11:07:36;19.58;;;5.53;;
49384;SDS011;36795;45.028;38.968;2023-11-25T11:10:31;21.20;;;6.55;;
49384;SDS011;36795;45.028;38.968;2023-11-25T11:13:34;19.15;;;5.32;;
49384;SDS011;36795;45.028;38.968;2023-11-25T11:16:29;20.30;;;5.68;;
49384;SDS011;36795;45.028;38.968;2023-11-25T11:19:44;11.93;;;3.53;;
49384;SDS011;36795;45.028;38.968;2023-11-25T11:22:32;18.37;;;5.35;;
49384;SDS011;36795;45.028;38.968;2023-11-25T11:25:23;18.33;;;5.20;;
49384;SDS011;36795;45.028;38.968;2023-11-25T11:28:21;22.45;;;5.90;;
49384;SDS011;36795;45.028;38.968;2023-11-25T11:31:34;18.95;;;5.18;;
49384;SDS011;36795;45.028;38.968;2023-11-25T11:34:51;17.77;;;4.18;;
49384;SDS011;36795;45.028;38.968;2023-11-25T11:37:38;19.83;;;5.90;;
49384;SDS011;36795;45.028;38.968;2023-11-25T11:40:31;17.62;;;5.45;;
49384;SDS011;36795;45.028;38.968;2023-11-25T11:43:17;22.45;;;5.70;;
49384;SDS011;36795;45.028;38.968;2023-11-25T11:46:04;20.37;;;5.97;;
49384;SDS011;36795;45.028;38.968;2023-11-25T11:48:51;20.35;;;6.78;;
49384;SDS011;36795;45.028;38.968;2023-11-25T11:51:36;23.17;;;6.37;;
49384;SDS011;36795;45.028;38.968;2023-11-25T11:54:42;19.05;;;5.97;;
49384;SDS011;36795;45.028;38.968;2023-11-25T11:57:28;20.08;;;5.72;;
49384;SDS011;36795;45.028;38.968;2023-11-25T12:00:14;20.88;;;6.43;;
49384;SDS011;36795;45.028;38.968;2023-11-25T12:03:01;20.23;;;5.90;;
49384;SDS011;36795;45.028;38.968;2023-11-25T12:05:47;21.30;;;6.35;;
49384;SDS011;36795;45.028;38.968;2023-11-25T12:08:33;19.23;;;5.87;;
49384;SDS011;36795;45.028;38.968;2023-11-25T12:11:19;19.52;;;5.72;;
49384;SDS011;36795;45.028;38.968;2023-11-25T12:14:05;20.62;;;5.93;;
49384;SDS011;36795;45.028;38.968;2023-11-25T12:16:51;25.02;;;6.57;;
49384;SDS011;36795;45.028;38.968;2023-11-25T12:19:38;23.52;;;7.03;;
49384;SDS011;36795;45.028;38.968;2023-11-25T12:22:23;20.98;;;6.22;;
49384;SDS011;36795;45.028;38.968;2023-11-25T12:25:10;20.85;;;6.50;;
49384;SDS011;36795;45.028;38.968;2023-11-25T12:28:08;19.75;;;6.20;;
49384;SDS011;36795;45.028;38.968;2023-11-25T12:30:55;23.08;;;6.40;;
49384;SDS011;36795;45.028;38.968;2023-11-25T12:33:41;18.30;;;5.78;;
49384;SDS011;36795;45.028;38.968;2023-11-25T12:36:27;22.70;;;6.95;;
49384;SDS011;36795;45.028;38.968;2023-11-25T12:39:13;19.23;;;5.50;;
49384;SDS011;36795;45.028;38.968;2023-11-25T12:42:01;21.17;;;6.15;;
49384;SDS011;36795;45.028;38.968;2023-11-25T12:44:47;22.65;;;7.82;;
49384;SDS011;36795;45.028;38.968;2023-11-25T12:47:48;19.40;;;6.05;;
49384;SDS011;36795;45.028;38.968;2023-11-25T12:50:34;17.27;;;5.80;;
49384;SDS011;36795;45.028;38.968;2023-11-25T12:53:52;18.35;;;5.25;;
49384;SDS011;36795;45.028;38.968;2023-11-25T12:56:41;18.23;;;5.43;;
49384;SDS011;36795;45.028;38.968;2023-11-25T12:59:34;17.62;;;5.55;;
49384;SDS011;36795;45.028;38.968;2023-11-25T13:02:20;21.85;;;5.95;;
49384;SDS011;36795;45.028;38.968;2023-11-25T13:05:06;19.30;;;5.28;;
49384;SDS011;36795;45.028;38.968;2023-11-25T13:07:52;23.87;;;5.72;;
49384;SDS011;36795;45.028;38.968;2023-11-25T13:10:39;18.42;;;4.22;;
49384;SDS011;36795;45.028;38.968;2023-11-25T13:13:26;18.27;;;4.53;;
49384;SDS011;36795;45.028;38.968;2023-11-25T13:16:12;21.45;;;4.90;;
49384;SDS011;36795;45.028;38.968;2023-11-25T13:18:58;17.15;;;4.45;;
49384;SDS011;36795;45.028;38.968;2023-11-25T13:21:45;18.40;;;4.50;;
49384;SDS011;36795;45.028;38.968;2023-11-25T13:24:30;15.98;;;4.00;;
49384;SDS011;36795;45.028;38.968;2023-11-25T13:27:17;18.37;;;5.07;;
49384;SDS011;36795;45.028;38.968;2023-11-25T13:30:02;19.48;;;5.12;;
49384;SDS011;36795;45.028;38.968;2023-11-25T13:32:52;14.95;;;4.30;;
49384;SDS011;36795;45.028;38.968;2023-11-25T13:35:39;16.52;;;4.55;;
49384;SDS011;36795;45.028;38.968;2023-11-25T13:38:25;17.62;;;4.62;;
49384;SDS011;36795;45.028;38.968;2023-11-25T13:41:11;17.67;;;4.87;;
49384;SDS011;36795;45.028;38.968;2023-11-25T13:43:58;18.33;;;4.60;;
49384;SDS011;36795;45.028;38.968;2023-11-25T13:46:43;17.45;;;4.57;;
49384;SDS011;36795;45.028;38.968;2023-11-25T13:49:29;13.20;;;4.10;;
49384;SDS011;36795;45.028;38.968;2023-11-25T13:52:17;18.08;;;4.32;;
49384;SDS011;36795;45.028;38.968;2023-11-25T13:55:04;16.30;;;4.60;;
49384;SDS011;36795;45.028;38.968;2023-11-25T13:57:50;18.42;;;4.12;;
49384;SDS011;36795;45.028;38.968;2023-11-25T14:00:37;19.05;;;4.57;;
49384;SDS011;36795;45.028;38.968;2023-11-25T14:03:24;17.70;;;4.72;;
49384;SDS011;36795;45.028;38.968;2023-11-25T14:06:10;15.30;;;3.72;;
49384;SDS011;36795;45.028;38.968;2023-11-25T14:08:56;20.02;;;5.15;;
49384;SDS011;36795;45.028;38.968;2023-11-25T14:11:43;18.77;;;4.30;;
49384;SDS011;36795;45.028;38.968;2023-11-25T14:14:30;14.80;;;4.18;;
49384;SDS011;36795;45.028;38.968;2023-11-25T14:17:15;20.12;;;4.68;;
49384;SDS011;36795;45.028;38.968;2023-11-25T14:20:03;17.50;;;4.65;;
49384;SDS011;36795;45.028;38.968;2023-11-25T14:22:59;19.27;;;5.30;;
49384;SDS011;36795;45.028;38.968;2023-11-25T14:25:47;20.98;;;5.28;;
49384;SDS011;36795;45.028;38.968;2023-11-25T14:28:33;16.55;;;4.50;;
49384;SDS011;36795;45.028;38.968;2023-11-25T14:31:19;23.60;;;5.15;;
49384;SDS011;36795;45.028;38.968;2023-11-25T14:34:05;20.37;;;5.00;;
49384;SDS011;36795;45.028;38.968;2023-11-25T14:36:52;18.83;;;4.87;;
49384;SDS011;36795;45.028;38.968;2023-11-25T14:39:38;18.48;;;5.03;;
49384;SDS011;36795;45.028;38.968;2023-11-25T14:42:24;20.83;;;5.00;;
49384;SDS011;36795;45.028;38.968;2023-11-25T14:45:10;17.55;;;4.85;;
49384;SDS011;36795;45.028;38.968;2023-11-25T14:47:57;18.35;;;5.28;;
49384;SDS011;36795;45.028;38.968;2023-11-25T14:50:43;25.42;;;5.60;;
49384;SDS011;36795;45.028;38.968;2023-11-25T14:53:30;22.05;;;5.18;;
49384;SDS011;36795;45.028;38.968;2023-11-25T14:56:16;17.15;;;4.68;;
49384;SDS011;36795;45.028;38.968;2023-11-25T14:59:02;18.75;;;5.15;;
49384;SDS011;36795;45.028;38.968;2023-11-25T15:01:49;19.70;;;4.75;;
49384;SDS011;36795;45.028;38.968;2023-11-25T15:04:35;23.58;;;4.82;;
49384;SDS011;36795;45.028;38.968;2023-11-25T15:07:22;24.15;;;5.57;;
49384;SDS011;36795;45.028;38.968;2023-11-25T15:10:09;17.23;;;5.28;;
49384;SDS011;36795;45.028;38.968;2023-11-25T15:12:55;22.98;;;5.60;;
49384;SDS011;36795;45.028;38.968;2023-11-25T15:15:41;23.50;;;5.72;;
49384;SDS011;36795;45.028;38.968;2023-11-25T15:18:27;17.27;;;5.00;;
49384;SDS011;36795;45.028;38.968;2023-11-25T15:21:17;19.92;;;5.60;;
49384;SDS011;36795;45.028;38.968;2023-11-25T15:24:04;20.12;;;5.00;;
49384;SDS011;36795;45.028;38.968;2023-11-25T15:26:51;23.27;;;5.40;;
49384;SDS011;36795;45.028;38.968;2023-11-25T15:29:37;23.15;;;4.75;;
49384;SDS011;36795;45.028;38.968;2023-11-25T15:32:23;19.02;;;4.50;;
49384;SDS011;36795;45.028;38.968;2023-11-25T15:35:10;18.73;;;4.72;;
49384;SDS011;36795;45.028;38.968;2023-11-25T15:37:57;19.05;;;4.50;;
49384;SDS011;36795;45.028;38.968;2023-11-25T15:40:42;16.10;;;4.00;;
49384;SDS011;36795;45.028;38.968;2023-11-25T15:43:29;18.05;;;4.10;;
49384;SDS011;36795;45.028;38.968;2023-11-25T15:46:14;15.73;;;3.72;;
49384;SDS011;36795;45.028;38.968;2023-11-25T15:49:01;18.92;;;4.18;;
49384;SDS011;36795;45.028;38.968;2023-11-25T15:51:47;17.27;;;4.20;;
49384;SDS011;36795;45.028;38.968;2023-11-25T15:54:33;11.70;;;3.33;;
49384;SDS011;36795;45.028;38.968;2023-11-25T15:57:19;20.05;;;4.03;;
49384;SDS011;36795;45.028;38.968;2023-11-25T16:00:06;19.27;;;4.20;;
49384;SDS011;36795;45.028;38.968;2023-11-25T16:02:59;14.40;;;3.53;;
49384;SDS011;36795;45.028;38.968;2023-11-25T16:05:44;18.33;;;4.65;;
49384;SDS011;36795;45.028;38.968;2023-11-25T16:08:31;17.83;;;3.85;;
49384;SDS011;36795;45.028;38.968;2023-11-25T16:11:17;19.50;;;4.43;;
49384;SDS011;36795;45.028;38.968;2023-11-25T16:14:03;17.75;;;4.97;;
49384;SDS011;36795;45.028;38.968;2023-11-25T16:16:49;10.63;;;2.83;;
49384;SDS011;36795;45.028;38.968;2023-11-25T16:19:35;21.40;;;4.75;;